sensor_id;sensor_type;location;lat;lon;timestamp;pressure;altitude;pressure_sealevel;temperature;humidity
55592;BME280;41454;53.396;-1.510;2023-07-20T00:01:33;100251.22;;;10.85;100.00
55592;BME280;41454;53.396;-1.510;2023-07-20T00:04:00;100252.94;;;10.99;100.00
55592;BME280;41454;53.396;-1.510;2023-07-20T00:06:27;100254.08;;;10.56;100.00
55592;BME280;41454;53.396;-1.510;2023-07-20T00:08:54;100252.15;;;11.00;100.00
55592;BME280;41454;53.396;-1.510;2023-07-20T00:11:21;100249.91;;;10.86;100.00
55592;BME280;41454;53.396;-1.510;2023-07-20T00:13:48;100251.44;;;10.84;100.00
55592;BME280;41454;53.396;-1.510;2023-07-20T00:16:15;100246.84;;;10.77;100.00
55592;BME280;41454;53.396;-1.510;2023-07-20T00:18:42;100250.44;;;10.47;100.00
55592;BME280;41454;53.396;-1.510;2023-07-20T00:21:09;100250.94;;;10.33;100.00
55592;BME280;41454;53.396;-1.510;2023-07-20T00:23:37;100255.27;;;10.51;100.00
55592;BME280;41454;53.396;-1.510;2023-07-20T00:26:04;100255.05;;;10.83;100.00
55592;BME280;41454;53.396;-1.510;2023-07-20T00:28:31;100253.05;;;10.82;100.00
55592;BME280;41454;53.396;-1.510;2023-07-20T00:30:59;100254.63;;;10.28;100.00
55592;BME280;41454;53.396;-1.510;2023-07-20T00:33:26;100251.40;;;10.78;100.00
55592;BME280;41454;53.396;-1.510;2023-07-20T00:35:54;100247.95;;;10.66;100.00
55592;BME280;41454;53.396;-1.510;2023-07-20T00:38:21;100245.19;;;10.61;100.00
55592;BME280;41454;53.396;-1.510;2023-07-20T00:40:47;100247.94;;;10.35;100.00
55592;BME280;41454;53.396;-1.510;2023-07-20T00:43:15;100246.47;;;9.89;100.00
55592;BME280;41454;53.396;-1.510;2023-07-20T00:45:42;100242.96;;;10.32;100.00
55592;BME280;41454;53.396;-1.510;2023-07-20T00:48:10;100245.16;;;10.34;100.00
55592;BME280;41454;53.396;-1.510;2023-07-20T00:50:38;100244.40;;;10.16;100.00
55592;BME280;41454;53.396;-1.510;2023-07-20T00:53:07;100240.92;;;9.68;100.00
55592;BME280;41454;53.396;-1.510;2023-07-20T00:55:34;100236.61;;;9.94;100.00
55592;BME280;41454;53.396;-1.510;2023-07-20T00:58:02;100236.94;;;9.79;100.00
55592;BME280;41454;53.396;-1.510;2023-07-20T01:00:29;100231.90;;;9.93;100.00
55592;BME280;41454;53.396;-1.510;2023-07-20T01:02:56;100233.16;;;9.79;100.00
55592;BME280;41454;53.396;-1.510;2023-07-20T01:05:27;100227.40;;;9.75;100.00
55592;BME280;41454;53.396;-1.510;2023-07-20T01:08:01;100227.75;;;9.74;100.00
55592;BME280;41454;53.396;-1.510;2023-07-20T01:10:35;100222.64;;;10.23;100.00
55592;BME280;41454;53.396;-1.510;2023-07-20T01:13:07;100220.68;;;10.16;100.00
55592;BME280;41454;53.396;-1.510;2023-07-20T01:15:37;100219.64;;;10.04;100.00
55592;BME280;41454;53.396;-1.510;2023-07-20T01:18:03;100219.88;;;10.13;100.00
55592;BME280;41454;53.396;-1.510;2023-07-20T01:20:32;100217.76;;;9.90;100.00
55592;BME280;41454;53.396;-1.510;2023-07-20T01:23:22;100216.11;;;9.75;100.00
55592;BME280;41454;53.396;-1.510;2023-07-20T01:26:04;100209.19;;;10.07;100.00
55592;BME280;41454;53.396;-1.510;2023-07-20T01:28:42;100207.96;;;10.17;100.00
55592;BME280;41454;53.396;-1.510;2023-07-20T01:31:19;100207.48;;;10.11;100.00
55592;BME280;41454;53.396;-1.510;2023-07-20T01:33:48;100210.22;;;10.00;100.00
55592;BME280;41454;53.396;-1.510;2023-07-20T01:36:18;100210.56;;;10.13;100.00
55592;BME280;41454;53.396;-1.510;2023-07-20T01:38:46;100208.47;;;10.72;100.00
55592;BME280;41454;53.396;-1.510;2023-07-20T01:41:14;100206.75;;;10.33;100.00
55592;BME280;41454;53.396;-1.510;2023-07-20T01:43:42;100206.28;;;10.64;100.00
55592;BME280;41454;53.396;-1.510;2023-07-20T01:46:09;100205.05;;;10.51;100.00
55592;BME280;41454;53.396;-1.510;2023-07-20T01:48:37;100207.23;;;10.65;100.00
55592;BME280;41454;53.396;-1.510;2023-07-20T01:51:04;100207.54;;;10.67;100.00
55592;BME280;41454;53.396;-1.510;2023-07-20T01:53:30;100208.15;;;10.46;100.00
55592;BME280;41454;53.396;-1.510;2023-07-20T01:56:07;100209.06;;;10.86;100.00
55592;BME280;41454;53.396;-1.510;2023-07-20T01:58:33;100210.83;;;11.27;100.00
55592;BME280;41454;53.396;-1.510;2023-07-20T02:01:01;100208.83;;;11.19;100.00
55592;BME280;41454;53.396;-1.510;2023-07-20T02:03:28;100208.13;;;11.06;100.00
55592;BME280;41454;53.396;-1.510;2023-07-20T02:05:54;100207.65;;;10.79;100.00
55592;BME280;41454;53.396;-1.510;2023-07-20T02:08:21;100202.55;;;10.53;100.00
55592;BME280;41454;53.396;-1.510;2023-07-20T02:10:48;100203.34;;;10.80;100.00
55592;BME280;41454;53.396;-1.510;2023-07-20T02:13:15;100196.97;;;10.64;100.00
55592;BME280;41454;53.396;-1.510;2023-07-20T02:15:42;100196.47;;;10.71;100.00
55592;BME280;41454;53.396;-1.510;2023-07-20T02:18:10;100191.17;;;10.35;100.00
55592;BME280;41454;53.396;-1.510;2023-07-20T02:20:37;100189.63;;;10.70;100.00
55592;BME280;41454;53.396;-1.510;2023-07-20T02:23:04;100192.43;;;10.49;100.00
55592;BME280;41454;53.396;-1.510;2023-07-20T02:25:31;100196.41;;;10.32;100.00
55592;BME280;41454;53.396;-1.510;2023-07-20T02:27:57;100195.01;;;9.96;100.00
55592;BME280;41454;53.396;-1.510;2023-07-20T02:30:24;100194.09;;;9.82;100.00
55592;BME280;41454;53.396;-1.510;2023-07-20T02:32:51;100193.06;;;10.34;100.00
55592;BME280;41454;53.396;-1.510;2023-07-20T02:35:18;100191.62;;;10.32;100.00
55592;BME280;41454;53.396;-1.510;2023-07-20T02:37:45;100187.78;;;10.57;100.00
55592;BME280;41454;53.396;-1.510;2023-07-20T02:40:12;100186.22;;;10.78;100.00
55592;BME280;41454;53.396;-1.510;2023-07-20T02:42:39;100189.26;;;11.10;100.00
55592;BME280;41454;53.396;-1.510;2023-07-20T02:45:07;100189.23;;;11.47;100.00
55592;BME280;41454;53.396;-1.510;2023-07-20T02:47:34;100184.54;;;11.60;100.00
55592;BME280;41454;53.396;-1.510;2023-07-20T02:50:01;100185.15;;;10.89;100.00
55592;BME280;41454;53.396;-1.510;2023-07-20T02:52:28;100188.08;;;11.54;100.00
55592;BME280;41454;53.396;-1.510;2023-07-20T02:54:55;100183.90;;;11.20;100.00
55592;BME280;41454;53.396;-1.510;2023-07-20T02:57:21;100181.04;;;10.64;100.00
55592;BME280;41454;53.396;-1.510;2023-07-20T02:59:48;100183.35;;;10.69;100.00
55592;BME280;41454;53.396;-1.510;2023-07-20T03:02:15;100180.76;;;10.38;100.00
55592;BME280;41454;53.396;-1.510;2023-07-20T03:04:41;100177.29;;;10.23;100.00
55592;BME280;41454;53.396;-1.510;2023-07-20T03:07:08;100176.82;;;10.46;100.00
55592;BME280;41454;53.396;-1.510;2023-07-20T03:09:35;100172.85;;;10.75;100.00
55592;BME280;41454;53.396;-1.510;2023-07-20T03:12:02;100171.19;;;11.00;100.00
55592;BME280;41454;53.396;-1.510;2023-07-20T03:14:29;100174.03;;;10.80;100.00
55592;BME280;41454;53.396;-1.510;2023-07-20T03:16:56;100176.08;;;10.95;100.00
55592;BME280;41454;53.396;-1.510;2023-07-20T03:19:22;100172.73;;;10.81;100.00
55592;BME280;41454;53.396;-1.510;2023-07-20T03:21:49;100173.45;;;10.65;100.00
55592;BME280;41454;53.396;-1.510;2023-07-20T03:24:16;100172.34;;;10.78;100.00
55592;BME280;41454;53.396;-1.510;2023-07-20T03:26:43;100172.18;;;10.81;100.00
55592;BME280;41454;53.396;-1.510;2023-07-20T03:29:10;100174.32;;;10.98;100.00
55592;BME280;41454;53.396;-1.510;2023-07-20T03:31:37;100174.34;;;10.78;100.00
55592;BME280;41454;53.396;-1.510;2023-07-20T03:34:04;100169.67;;;11.06;100.00
55592;BME280;41454;53.396;-1.510;2023-07-20T03:36:31;100170.47;;;10.90;100.00
55592;BME280;41454;53.396;-1.510;2023-07-20T03:38:58;100169.71;;;11.36;100.00
55592;BME280;41454;53.396;-1.510;2023-07-20T03:41:25;100166.16;;;11.50;100.00
55592;BME280;41454;53.396;-1.510;2023-07-20T03:43:52;100164.56;;;11.81;100.00
55592;BME280;41454;53.396;-1.510;2023-07-20T03:46:19;100160.94;;;12.04;100.00
55592;BME280;41454;53.396;-1.510;2023-07-20T03:48:46;100161.25;;;12.22;100.00
55592;BME280;41454;53.396;-1.510;2023-07-20T03:51:13;100161.61;;;12.24;100.00
55592;BME280;41454;53.396;-1.510;2023-07-20T03:53:40;100151.01;;;12.57;100.00
55592;BME280;41454;53.396;-1.510;2023-07-20T03:56:07;100151.09;;;13.07;100.00
55592;BME280;41454;53.396;-1.510;2023-07-20T03:58:33;100147.80;;;12.84;100.00
55592;BME280;41454;53.396;-1.510;2023-07-20T04:01:00;100149.13;;;12.70;100.00
55592;BME280;41454;53.396;-1.510;2023-07-20T04:03:27;100154.22;;;11.96;100.00
55592;BME280;41454;53.396;-1.510;2023-07-20T04:05:54;100155.11;;;11.82;100.00
55592;BME280;41454;53.396;-1.510;2023-07-20T04:08:23;100154.07;;;12.07;100.00
55592;BME280;41454;53.396;-1.510;2023-07-20T04:10:50;100151.26;;;12.02;100.00
55592;BME280;41454;53.396;-1.510;2023-07-20T04:13:17;100151.30;;;12.30;100.00
55592;BME280;41454;53.396;-1.510;2023-07-20T04:15:44;100152.47;;;12.41;100.00
55592;BME280;41454;53.396;-1.510;2023-07-20T04:18:11;100147.63;;;13.09;100.00
55592;BME280;41454;53.396;-1.510;2023-07-20T04:20:38;100146.95;;;13.20;100.00
55592;BME280;41454;53.396;-1.510;2023-07-20T04:23:04;100149.06;;;13.71;100.00
55592;BME280;41454;53.396;-1.510;2023-07-20T04:25:31;100146.85;;;13.59;100.00
55592;BME280;41454;53.396;-1.510;2023-07-20T04:27:58;100147.36;;;13.75;100.00
55592;BME280;41454;53.396;-1.510;2023-07-20T04:30:25;100145.67;;;13.87;100.00
55592;BME280;41454;53.396;-1.510;2023-07-20T04:32:53;100146.79;;;13.21;100.00
55592;BME280;41454;53.396;-1.510;2023-07-20T04:35:46;100147.27;;;12.21;100.00
55592;BME280;41454;53.396;-1.510;2023-07-20T04:38:14;100145.81;;;11.99;100.00
55592;BME280;41454;53.396;-1.510;2023-07-20T04:40:42;100142.30;;;11.56;100.00
55592;BME280;41454;53.396;-1.510;2023-07-20T04:43:09;100142.25;;;11.58;100.00
55592;BME280;41454;53.396;-1.510;2023-07-20T04:45:37;100139.84;;;12.16;100.00
55592;BME280;41454;53.396;-1.510;2023-07-20T04:48:10;100135.40;;;12.39;100.00
55592;BME280;41454;53.396;-1.510;2023-07-20T04:50:38;100134.69;;;12.05;100.00
55592;BME280;41454;53.396;-1.510;2023-07-20T04:53:05;100132.12;;;12.44;100.00
55592;BME280;41454;53.396;-1.510;2023-07-20T04:55:32;100130.14;;;12.74;100.00
55592;BME280;41454;53.396;-1.510;2023-07-20T04:57:59;100136.93;;;13.55;100.00
55592;BME280;41454;53.396;-1.510;2023-07-20T05:00:27;100138.27;;;13.51;100.00
55592;BME280;41454;53.396;-1.510;2023-07-20T05:02:54;100139.12;;;13.07;100.00
55592;BME280;41454;53.396;-1.510;2023-07-20T05:05:21;100137.60;;;13.17;100.00
55592;BME280;41454;53.396;-1.510;2023-07-20T05:07:48;100146.26;;;12.19;100.00
55592;BME280;41454;53.396;-1.510;2023-07-20T05:10:15;100146.22;;;11.80;100.00
55592;BME280;41454;53.396;-1.510;2023-07-20T05:12:43;100145.61;;;11.92;100.00
55592;BME280;41454;53.396;-1.510;2023-07-20T05:15:10;100144.32;;;11.63;100.00
55592;BME280;41454;53.396;-1.510;2023-07-20T05:17:37;100146.74;;;11.25;100.00
55592;BME280;41454;53.396;-1.510;2023-07-20T05:20:06;100148.59;;;10.91;100.00
55592;BME280;41454;53.396;-1.510;2023-07-20T05:22:33;100151.35;;;10.72;100.00
55592;BME280;41454;53.396;-1.510;2023-07-20T05:25:00;100154.16;;;10.96;100.00
55592;BME280;41454;53.396;-1.510;2023-07-20T05:27:27;100154.77;;;11.44;100.00
55592;BME280;41454;53.396;-1.510;2023-07-20T05:29:54;100153.90;;;11.87;100.00
55592;BME280;41454;53.396;-1.510;2023-07-20T05:32:21;100154.22;;;11.70;100.00
55592;BME280;41454;53.396;-1.510;2023-07-20T05:34:51;100151.84;;;11.75;100.00
55592;BME280;41454;53.396;-1.510;2023-07-20T05:37:18;100147.56;;;11.79;100.00
55592;BME280;41454;53.396;-1.510;2023-07-20T05:39:44;100149.40;;;12.27;100.00
55592;BME280;41454;53.396;-1.510;2023-07-20T05:42:11;100147.94;;;11.84;100.00
55592;BME280;41454;53.396;-1.510;2023-07-20T05:44:39;100147.71;;;11.62;100.00
55592;BME280;41454;53.396;-1.510;2023-07-20T05:47:06;100152.19;;;11.46;100.00
55592;BME280;41454;53.396;-1.510;2023-07-20T05:49:34;100150.49;;;11.44;100.00
55592;BME280;41454;53.396;-1.510;2023-07-20T05:52:01;100155.59;;;11.62;100.00
55592;BME280;41454;53.396;-1.510;2023-07-20T05:54:29;100155.22;;;12.00;100.00
55592;BME280;41454;53.396;-1.510;2023-07-20T05:56:56;100158.00;;;11.56;100.00
55592;BME280;41454;53.396;-1.510;2023-07-20T05:59:24;100156.01;;;11.54;100.00
55592;BME280;41454;53.396;-1.510;2023-07-20T06:01:51;100149.77;;;11.74;100.00
55592;BME280;41454;53.396;-1.510;2023-07-20T06:04:18;100153.05;;;12.25;100.00
55592;BME280;41454;53.396;-1.510;2023-07-20T06:06:45;100154.37;;;12.17;100.00
55592;BME280;41454;53.396;-1.510;2023-07-20T06:09:12;100154.91;;;11.93;100.00
55592;BME280;41454;53.396;-1.510;2023-07-20T06:11:38;100152.65;;;12.12;100.00
55592;BME280;41454;53.396;-1.510;2023-07-20T06:14:05;100153.49;;;11.92;100.00
55592;BME280;41454;53.396;-1.510;2023-07-20T06:16:33;100153.16;;;11.51;100.00
55592;BME280;41454;53.396;-1.510;2023-07-20T06:19:00;100154.62;;;11.47;100.00
55592;BME280;41454;53.396;-1.510;2023-07-20T06:21:27;100148.62;;;11.85;100.00
55592;BME280;41454;53.396;-1.510;2023-07-20T06:23:55;100153.31;;;11.62;100.00
55592;BME280;41454;53.396;-1.510;2023-07-20T06:26:22;100148.20;;;11.58;100.00
55592;BME280;41454;53.396;-1.510;2023-07-20T06:28:49;100149.95;;;11.66;100.00
55592;BME280;41454;53.396;-1.510;2023-07-20T06:31:17;100150.00;;;11.95;100.00
55592;BME280;41454;53.396;-1.510;2023-07-20T06:33:44;100150.07;;;11.79;100.00
55592;BME280;41454;53.396;-1.510;2023-07-20T06:36:11;100153.66;;;11.37;100.00
55592;BME280;41454;53.396;-1.510;2023-07-20T06:38:38;100153.28;;;11.44;100.00
55592;BME280;41454;53.396;-1.510;2023-07-20T06:41:06;100150.00;;;11.80;100.00
55592;BME280;41454;53.396;-1.510;2023-07-20T06:43:32;100149.98;;;11.79;100.00
55592;BME280;41454;53.396;-1.510;2023-07-20T06:46:00;100150.70;;;11.43;100.00
55592;BME280;41454;53.396;-1.510;2023-07-20T06:48:26;100150.51;;;11.83;100.00
55592;BME280;41454;53.396;-1.510;2023-07-20T06:50:53;100149.72;;;11.53;100.00
55592;BME280;41454;53.396;-1.510;2023-07-20T06:53:20;100151.89;;;11.38;100.00
55592;BME280;41454;53.396;-1.510;2023-07-20T06:55:48;100153.27;;;11.23;100.00
55592;BME280;41454;53.396;-1.510;2023-07-20T06:58:15;100152.03;;;11.88;100.00
55592;BME280;41454;53.396;-1.510;2023-07-20T07:00:42;100149.92;;;11.41;100.00
55592;BME280;41454;53.396;-1.510;2023-07-20T07:03:09;100146.48;;;11.88;100.00
55592;BME280;41454;53.396;-1.510;2023-07-20T07:05:36;100154.51;;;11.73;100.00
55592;BME280;41454;53.396;-1.510;2023-07-20T07:08:04;100150.99;;;11.48;100.00
55592;BME280;41454;53.396;-1.510;2023-07-20T07:10:32;100152.90;;;11.48;100.00
55592;BME280;41454;53.396;-1.510;2023-07-20T07:12:59;100152.23;;;11.55;100.00
55592;BME280;41454;53.396;-1.510;2023-07-20T07:15:26;100152.91;;;11.98;100.00
55592;BME280;41454;53.396;-1.510;2023-07-20T07:17:53;100161.32;;;11.55;100.00
55592;BME280;41454;53.396;-1.510;2023-07-20T07:20:20;100158.04;;;11.53;100.00
55592;BME280;41454;53.396;-1.510;2023-07-20T07:22:49;100157.62;;;12.04;100.00
55592;BME280;41454;53.396;-1.510;2023-07-20T07:25:17;100161.84;;;11.96;100.00
55592;BME280;41454;53.396;-1.510;2023-07-20T07:27:44;100159.93;;;11.79;100.00
55592;BME280;41454;53.396;-1.510;2023-07-20T07:30:12;100162.79;;;12.01;100.00
55592;BME280;41454;53.396;-1.510;2023-07-20T07:32:39;100163.50;;;11.76;100.00
55592;BME280;41454;53.396;-1.510;2023-07-20T07:35:07;100162.45;;;12.38;100.00
55592;BME280;41454;53.396;-1.510;2023-07-20T07:37:33;100165.18;;;12.33;100.00
55592;BME280;41454;53.396;-1.510;2023-07-20T07:40:00;100167.33;;;11.94;100.00
55592;BME280;41454;53.396;-1.510;2023-07-20T07:42:29;100168.20;;;11.64;100.00
55592;BME280;41454;53.396;-1.510;2023-07-20T07:44:56;100171.07;;;12.31;100.00
55592;BME280;41454;53.396;-1.510;2023-07-20T07:47:24;100170.60;;;11.95;100.00
55592;BME280;41454;53.396;-1.510;2023-07-20T07:49:51;100172.04;;;12.11;100.00
55592;BME280;41454;53.396;-1.510;2023-07-20T07:52:18;100169.07;;;12.50;100.00
55592;BME280;41454;53.396;-1.510;2023-07-20T07:54:46;100172.89;;;12.31;100.00
55592;BME280;41454;53.396;-1.510;2023-07-20T07:57:13;100172.06;;;12.60;100.00
55592;BME280;41454;53.396;-1.510;2023-07-20T07:59:40;100173.98;;;12.77;100.00
55592;BME280;41454;53.396;-1.510;2023-07-20T08:02:07;100171.71;;;13.13;100.00
55592;BME280;41454;53.396;-1.510;2023-07-20T08:04:34;100172.95;;;13.50;100.00
55592;BME280;41454;53.396;-1.510;2023-07-20T08:07:04;100173.11;;;13.45;100.00
55592;BME280;41454;53.396;-1.510;2023-07-20T08:09:31;100176.54;;;12.53;100.00
55592;BME280;41454;53.396;-1.510;2023-07-20T08:11:58;100173.43;;;13.22;100.00
55592;BME280;41454;53.396;-1.510;2023-07-20T08:14:25;100172.05;;;12.80;100.00
55592;BME280;41454;53.396;-1.510;2023-07-20T08:16:53;100178.22;;;12.63;100.00
55592;BME280;41454;53.396;-1.510;2023-07-20T08:19:20;100177.56;;;12.96;100.00
55592;BME280;41454;53.396;-1.510;2023-07-20T08:21:47;100173.00;;;12.82;100.00
55592;BME280;41454;53.396;-1.510;2023-07-20T08:24:14;100177.76;;;13.09;100.00
55592;BME280;41454;53.396;-1.510;2023-07-20T08:26:41;100168.90;;;13.52;100.00
55592;BME280;41454;53.396;-1.510;2023-07-20T08:29:09;100170.26;;;12.88;100.00
55592;BME280;41454;53.396;-1.510;2023-07-20T08:31:36;100173.90;;;13.15;100.00
55592;BME280;41454;53.396;-1.510;2023-07-20T08:34:03;100175.32;;;13.39;100.00
55592;BME280;41454;53.396;-1.510;2023-07-20T08:36:30;100170.15;;;13.63;100.00
55592;BME280;41454;53.396;-1.510;2023-07-20T08:38:57;100176.73;;;12.94;100.00
55592;BME280;41454;53.396;-1.510;2023-07-20T08:41:24;100177.36;;;13.17;100.00
55592;BME280;41454;53.396;-1.510;2023-07-20T08:43:54;100179.86;;;13.87;100.00
55592;BME280;41454;53.396;-1.510;2023-07-20T08:46:23;100186.65;;;13.64;100.00
55592;BME280;41454;53.396;-1.510;2023-07-20T08:48:51;100184.13;;;14.06;100.00
55592;BME280;41454;53.396;-1.510;2023-07-20T08:51:19;100184.97;;;14.36;100.00
55592;BME280;41454;53.396;-1.510;2023-07-20T08:53:47;100189.28;;;14.40;100.00
55592;BME280;41454;53.396;-1.510;2023-07-20T08:56:18;100189.09;;;14.75;100.00
55592;BME280;41454;53.396;-1.510;2023-07-20T08:58:47;100190.57;;;14.90;100.00
55592;BME280;41454;53.396;-1.510;2023-07-20T09:01:14;100192.47;;;15.15;100.00
55592;BME280;41454;53.396;-1.510;2023-07-20T09:03:41;100191.13;;;15.69;100.00
55592;BME280;41454;53.396;-1.510;2023-07-20T09:06:09;100186.18;;;15.30;100.00
55592;BME280;41454;53.396;-1.510;2023-07-20T09:08:38;100190.91;;;15.03;100.00
55592;BME280;41454;53.396;-1.510;2023-07-20T09:11:06;100182.86;;;14.93;100.00
55592;BME280;41454;53.396;-1.510;2023-07-20T09:13:33;100186.05;;;14.84;100.00
55592;BME280;41454;53.396;-1.510;2023-07-20T09:16:01;100184.33;;;14.48;100.00
55592;BME280;41454;53.396;-1.510;2023-07-20T09:18:29;100188.03;;;14.61;100.00
55592;BME280;41454;53.396;-1.510;2023-07-20T09:21:02;100183.35;;;14.64;100.00
55592;BME280;41454;53.396;-1.510;2023-07-20T09:23:31;100182.94;;;14.77;100.00
55592;BME280;41454;53.396;-1.510;2023-07-20T09:25:58;100189.50;;;14.68;100.00
55592;BME280;41454;53.396;-1.510;2023-07-20T09:28:26;100184.74;;;14.52;100.00
55592;BME280;41454;53.396;-1.510;2023-07-20T09:30:54;100182.97;;;15.96;100.00
55592;BME280;41454;53.396;-1.510;2023-07-20T09:33:21;100180.32;;;15.19;100.00
55592;BME280;41454;53.396;-1.510;2023-07-20T09:35:49;100178.84;;;15.21;100.00
55592;BME280;41454;53.396;-1.510;2023-07-20T09:38:17;100181.12;;;15.13;100.00
55592;BME280;41454;53.396;-1.510;2023-07-20T09:40:44;100181.40;;;14.77;100.00
55592;BME280;41454;53.396;-1.510;2023-07-20T09:43:11;100176.62;;;14.55;100.00
55592;BME280;41454;53.396;-1.510;2023-07-20T09:45:40;100178.64;;;14.83;100.00
55592;BME280;41454;53.396;-1.510;2023-07-20T09:48:10;100182.08;;;14.84;100.00
55592;BME280;41454;53.396;-1.510;2023-07-20T09:50:40;100177.09;;;14.31;100.00
55592;BME280;41454;53.396;-1.510;2023-07-20T09:53:09;100180.02;;;15.17;100.00
55592;BME280;41454;53.396;-1.510;2023-07-20T09:55:38;100178.07;;;15.47;100.00
55592;BME280;41454;53.396;-1.510;2023-07-20T09:58:07;100179.25;;;15.39;100.00
55592;BME280;41454;53.396;-1.510;2023-07-20T10:00:36;100179.83;;;14.41;100.00
55592;BME280;41454;53.396;-1.510;2023-07-20T10:03:04;100176.77;;;14.81;100.00
55592;BME280;41454;53.396;-1.510;2023-07-20T10:05:33;100175.98;;;15.44;100.00
55592;BME280;41454;53.396;-1.510;2023-07-20T10:08:02;100176.56;;;15.24;100.00
55592;BME280;41454;53.396;-1.510;2023-07-20T10:10:31;100173.50;;;15.80;100.00
55592;BME280;41454;53.396;-1.510;2023-07-20T10:13:01;100173.78;;;15.41;100.00
55592;BME280;41454;53.396;-1.510;2023-07-20T10:15:32;100168.29;;;15.00;100.00
55592;BME280;41454;53.396;-1.510;2023-07-20T10:18:04;100168.24;;;14.78;100.00
55592;BME280;41454;53.396;-1.510;2023-07-20T10:20:36;100164.74;;;14.75;100.00
55592;BME280;41454;53.396;-1.510;2023-07-20T10:23:04;100161.48;;;15.72;100.00
55592;BME280;41454;53.396;-1.510;2023-07-20T10:25:33;100159.66;;;15.93;100.00
55592;BME280;41454;53.396;-1.510;2023-07-20T10:28:00;100158.78;;;15.47;100.00
55592;BME280;41454;53.396;-1.510;2023-07-20T10:30:28;100162.33;;;15.83;100.00
55592;BME280;41454;53.396;-1.510;2023-07-20T10:32:55;100165.44;;;15.82;100.00
55592;BME280;41454;53.396;-1.510;2023-07-20T10:35:23;100165.43;;;15.37;100.00
55592;BME280;41454;53.396;-1.510;2023-07-20T10:37:52;100165.56;;;15.33;100.00
55592;BME280;41454;53.396;-1.510;2023-07-20T10:40:26;100164.36;;;15.87;100.00
55592;BME280;41454;53.396;-1.510;2023-07-20T10:42:57;100160.56;;;15.66;100.00
55592;BME280;41454;53.396;-1.510;2023-07-20T10:45:34;100160.86;;;16.01;100.00
55592;BME280;41454;53.396;-1.510;2023-07-20T10:48:04;100159.28;;;15.79;100.00
55592;BME280;41454;53.396;-1.510;2023-07-20T10:50:32;100156.02;;;15.53;100.00
55592;BME280;41454;53.396;-1.510;2023-07-20T10:53:12;100150.60;;;15.88;100.00
55592;BME280;41454;53.396;-1.510;2023-07-20T10:55:41;100153.06;;;16.49;100.00
55592;BME280;41454;53.396;-1.510;2023-07-20T10:58:09;100152.99;;;16.53;100.00
55592;BME280;41454;53.396;-1.510;2023-07-20T11:00:41;100152.15;;;16.92;100.00
55592;BME280;41454;53.396;-1.510;2023-07-20T11:03:27;100146.39;;;16.31;100.00
55592;BME280;41454;53.396;-1.510;2023-07-20T11:05:56;100145.25;;;16.07;100.00
55592;BME280;41454;53.396;-1.510;2023-07-20T11:08:39;100133.73;;;17.10;100.00
55592;BME280;41454;53.396;-1.510;2023-07-20T11:11:22;100132.66;;;16.01;100.00
55592;BME280;41454;53.396;-1.510;2023-07-20T11:13:57;100131.36;;;16.60;100.00
55592;BME280;41454;53.396;-1.510;2023-07-20T11:16:41;100127.38;;;16.90;100.00
55592;BME280;41454;53.396;-1.510;2023-07-20T11:19:18;100123.67;;;16.96;100.00
55592;BME280;41454;53.396;-1.510;2023-07-20T11:21:47;100130.68;;;16.57;100.00
55592;BME280;41454;53.396;-1.510;2023-07-20T11:24:17;100124.46;;;15.98;100.00
55592;BME280;41454;53.396;-1.510;2023-07-20T11:26:46;100127.73;;;16.09;100.00
55592;BME280;41454;53.396;-1.510;2023-07-20T11:29:14;100129.24;;;15.99;100.00
55592;BME280;41454;53.396;-1.510;2023-07-20T11:31:43;100123.32;;;16.69;100.00
55592;BME280;41454;53.396;-1.510;2023-07-20T11:34:12;100125.91;;;15.94;100.00
55592;BME280;41454;53.396;-1.510;2023-07-20T11:36:41;100121.11;;;16.81;100.00
55592;BME280;41454;53.396;-1.510;2023-07-20T11:39:09;100120.11;;;16.74;100.00
55592;BME280;41454;53.396;-1.510;2023-07-20T11:41:38;100120.72;;;17.14;100.00
55592;BME280;41454;53.396;-1.510;2023-07-20T11:44:05;100116.16;;;17.12;100.00
55592;BME280;41454;53.396;-1.510;2023-07-20T11:46:32;100116.59;;;16.89;100.00
55592;BME280;41454;53.396;-1.510;2023-07-20T11:49:00;100120.11;;;16.81;100.00
55592;BME280;41454;53.396;-1.510;2023-07-20T11:51:28;100116.13;;;16.74;96.45
55592;BME280;41454;53.396;-1.510;2023-07-20T11:53:55;100109.94;;;16.35;100.00
55592;BME280;41454;53.396;-1.510;2023-07-20T11:56:25;100113.54;;;16.81;99.97
55592;BME280;41454;53.396;-1.510;2023-07-20T11:58:55;100111.39;;;15.85;99.39
55592;BME280;41454;53.396;-1.510;2023-07-20T12:01:23;100103.94;;;16.74;100.00
55592;BME280;41454;53.396;-1.510;2023-07-20T12:03:50;100102.06;;;16.23;100.00
55592;BME280;41454;53.396;-1.510;2023-07-20T12:06:18;100100.90;;;16.71;92.83
55592;BME280;41454;53.396;-1.510;2023-07-20T12:08:45;100099.94;;;16.49;92.41
55592;BME280;41454;53.396;-1.510;2023-07-20T12:11:12;100092.19;;;16.63;89.49
55592;BME280;41454;53.396;-1.510;2023-07-20T12:13:41;100088.89;;;16.90;90.28
55592;BME280;41454;53.396;-1.510;2023-07-20T12:16:11;100085.16;;;17.63;86.69
55592;BME280;41454;53.396;-1.510;2023-07-20T12:18:38;100078.92;;;17.14;81.46
55592;BME280;41454;53.396;-1.510;2023-07-20T12:21:06;100082.77;;;17.76;80.97
55592;BME280;41454;53.396;-1.510;2023-07-20T12:23:38;100076.29;;;17.04;75.95
55592;BME280;41454;53.396;-1.510;2023-07-20T12:26:07;100084.05;;;17.75;76.87
55592;BME280;41454;53.396;-1.510;2023-07-20T12:28:39;100077.55;;;17.07;66.89
55592;BME280;41454;53.396;-1.510;2023-07-20T12:31:06;100082.23;;;17.36;61.07
55592;BME280;41454;53.396;-1.510;2023-07-20T12:33:34;100081.55;;;16.90;59.23
55592;BME280;41454;53.396;-1.510;2023-07-20T12:36:01;100083.26;;;16.46;59.88